sensor_id;sensor_type;location;lat;lon;timestamp;P1;durP1;ratioP1;P2;durP2;ratioP2
14369;SDS011;7268;50.792;0.252;2023-06-24T00:00:34;9.63;;;4.10;;
14369;SDS011;7268;50.792;0.252;2023-06-24T00:03:06;6.53;;;3.20;;
14369;SDS011;7268;50.792;0.252;2023-06-24T00:05:34;5.32;;;3.13;;
14369;SDS011;7268;50.792;0.252;2023-06-24T00:08:01;10.27;;;3.80;;
14369;SDS011;7268;50.792;0.252;2023-06-24T00:10:30;5.15;;;2.03;;
14369;SDS011;7268;50.792;0.252;2023-06-24T00:12:57;6.88;;;3.55;;
14369;SDS011;7268;50.792;0.252;2023-06-24T00:15:28;4.10;;;3.08;;
14369;SDS011;7268;50.792;0.252;2023-06-24T00:17:55;5.88;;;3.28;;
14369;SDS011;7268;50.792;0.252;2023-06-24T00:20:34;5.88;;;3.10;;
14369;SDS011;7268;50.792;0.252;2023-06-24T00:25:29;7.43;;;3.40;;
14369;SDS011;7268;50.792;0.252;2023-06-24T00:27:59;4.85;;;3.22;;
14369;SDS011;7268;50.792;0.252;2023-06-24T00:30:26;5.40;;;3.72;;
14369;SDS011;7268;50.792;0.252;2023-06-24T00:32:53;5.68;;;3.78;;
14369;SDS011;7268;50.792;0.252;2023-06-24T00:35:20;9.48;;;4.13;;
14369;SDS011;7268;50.792;0.252;2023-06-24T00:37:47;6.60;;;3.53;;
14369;SDS011;7268;50.792;0.252;2023-06-24T00:42:44;5.13;;;3.95;;
14369;SDS011;7268;50.792;0.252;2023-06-24T00:45:12;6.63;;;4.68;;
14369;SDS011;7268;50.792;0.252;2023-06-24T00:47:39;6.50;;;3.53;;
14369;SDS011;7268;50.792;0.252;2023-06-24T00:50:07;8.60;;;4.57;;
14369;SDS011;7268;50.792;0.252;2023-06-24T00:52:34;6.30;;;3.50;;
14369;SDS011;7268;50.792;0.252;2023-06-24T00:55:04;5.63;;;3.50;;
14369;SDS011;7268;50.792;0.252;2023-06-24T00:57:31;4.45;;;2.28;;
14369;SDS011;7268;50.792;0.252;2023-06-24T00:59:59;5.88;;;3.47;;
14369;SDS011;7268;50.792;0.252;2023-06-24T01:02:26;4.53;;;2.75;;
14369;SDS011;7268;50.792;0.252;2023-06-24T01:04:54;5.60;;;2.63;;
14369;SDS011;7268;50.792;0.252;2023-06-24T01:07:23;4.85;;;2.58;;
14369;SDS011;7268;50.792;0.252;2023-06-24T01:09:50;4.95;;;3.78;;
14369;SDS011;7268;50.792;0.252;2023-06-24T01:12:18;4.15;;;2.97;;
14369;SDS011;7268;50.792;0.252;2023-06-24T01:14:45;3.97;;;2.28;;
14369;SDS011;7268;50.792;0.252;2023-06-24T01:17:16;5.55;;;2.75;;
14369;SDS011;7268;50.792;0.252;2023-06-24T01:33:13;5.22;;;3.05;;
14369;SDS011;7268;50.792;0.252;2023-06-24T01:35:48;5.10;;;3.30;;
14369;SDS011;7268;50.792;0.252;2023-06-24T01:38:22;3.50;;;3.00;;
14369;SDS011;7268;50.792;0.252;2023-06-24T01:40:53;6.22;;;3.50;;
14369;SDS011;7268;50.792;0.252;2023-06-24T01:43:21;2.88;;;2.38;;
14369;SDS011;7268;50.792;0.252;2023-06-24T01:45:50;5.82;;;1.98;;
14369;SDS011;7268;50.792;0.252;2023-06-24T01:48:22;4.50;;;2.25;;
14369;SDS011;7268;50.792;0.252;2023-06-24T01:54:03;4.53;;;2.97;;
14369;SDS011;7268;50.792;0.252;2023-06-24T01:56:33;2.83;;;1.42;;
14369;SDS011;7268;50.792;0.252;2023-06-24T01:59:04;3.45;;;3.15;;
14369;SDS011;7268;50.792;0.252;2023-06-24T02:01:32;4.47;;;2.15;;
14369;SDS011;7268;50.792;0.252;2023-06-24T02:04:01;5.10;;;3.20;;
14369;SDS011;7268;50.792;0.252;2023-06-24T02:06:29;3.70;;;2.30;;
14369;SDS011;7268;50.792;0.252;2023-06-24T02:08:57;3.30;;;1.83;;
14369;SDS011;7268;50.792;0.252;2023-06-24T02:11:30;4.28;;;3.05;;
14369;SDS011;7268;50.792;0.252;2023-06-24T02:13:59;4.88;;;3.50;;
14369;SDS011;7268;50.792;0.252;2023-06-24T02:16:28;6.63;;;3.33;;
14369;SDS011;7268;50.792;0.252;2023-06-24T02:18:56;4.07;;;2.05;;
14369;SDS011;7268;50.792;0.252;2023-06-24T02:21:23;4.53;;;2.45;;
14369;SDS011;7268;50.792;0.252;2023-06-24T02:23:52;4.45;;;3.13;;
14369;SDS011;7268;50.792;0.252;2023-06-24T02:28:47;3.80;;;2.58;;
14369;SDS011;7268;50.792;0.252;2023-06-24T02:31:15;4.40;;;2.95;;
14369;SDS011;7268;50.792;0.252;2023-06-24T02:33:42;2.88;;;2.15;;
14369;SDS011;7268;50.792;0.252;2023-06-24T02:36:10;11.18;;;3.08;;
14369;SDS011;7268;50.792;0.252;2023-06-24T02:38:37;4.80;;;1.98;;
14369;SDS011;7268;50.792;0.252;2023-06-24T02:41:04;5.03;;;3.10;;
14369;SDS011;7268;50.792;0.252;2023-06-24T02:43:32;5.50;;;3.08;;
14369;SDS011;7268;50.792;0.252;2023-06-24T02:46:02;2.45;;;1.75;;
14369;SDS011;7268;50.792;0.252;2023-06-24T02:48:31;5.38;;;3.00;;
14369;SDS011;7268;50.792;0.252;2023-06-24T02:51:01;3.80;;;2.67;;
14369;SDS011;7268;50.792;0.252;2023-06-24T02:53:30;2.90;;;2.45;;
14369;SDS011;7268;50.792;0.252;2023-06-24T02:55:57;4.80;;;2.85;;
14369;SDS011;7268;50.792;0.252;2023-06-24T02:58:25;4.22;;;2.90;;
14369;SDS011;7268;50.792;0.252;2023-06-24T03:01:00;4.20;;;2.05;;
14369;SDS011;7268;50.792;0.252;2023-06-24T03:03:29;4.35;;;3.33;;
14369;SDS011;7268;50.792;0.252;2023-06-24T03:05:58;7.28;;;2.95;;
14369;SDS011;7268;50.792;0.252;2023-06-24T03:08:25;8.20;;;3.33;;
14369;SDS011;7268;50.792;0.252;2023-06-24T03:10:57;3.63;;;2.13;;
14369;SDS011;7268;50.792;0.252;2023-06-24T03:13:25;2.70;;;1.40;;
14369;SDS011;7268;50.792;0.252;2023-06-24T03:18:19;3.10;;;2.38;;
14369;SDS011;7268;50.792;0.252;2023-06-24T03:20:46;8.85;;;3.42;;
14369;SDS011;7268;50.792;0.252;2023-06-24T03:23:13;3.70;;;2.70;;
14369;SDS011;7268;50.792;0.252;2023-06-24T03:25:40;5.05;;;3.08;;
14369;SDS011;7268;50.792;0.252;2023-06-24T03:28:07;2.75;;;2.00;;
14369;SDS011;7268;50.792;0.252;2023-06-24T03:30:34;4.88;;;2.75;;
14369;SDS011;7268;50.792;0.252;2023-06-24T03:33:02;2.58;;;1.60;;
14369;SDS011;7268;50.792;0.252;2023-06-24T03:35:29;3.78;;;2.35;;
14369;SDS011;7268;50.792;0.252;2023-06-24T03:37:59;3.55;;;2.25;;
14369;SDS011;7268;50.792;0.252;2023-06-24T03:40:27;3.47;;;2.08;;
14369;SDS011;7268;50.792;0.252;2023-06-24T03:42:54;2.85;;;2.22;;
14369;SDS011;7268;50.792;0.252;2023-06-24T03:45:21;3.72;;;2.00;;
14369;SDS011;7268;50.792;0.252;2023-06-24T03:47:48;5.60;;;2.20;;
14369;SDS011;7268;50.792;0.252;2023-06-24T03:50:15;4.00;;;2.60;;
14369;SDS011;7268;50.792;0.252;2023-06-24T03:52:42;3.75;;;3.22;;
14369;SDS011;7268;50.792;0.252;2023-06-24T03:55:10;2.20;;;1.70;;
14369;SDS011;7268;50.792;0.252;2023-06-24T03:57:37;7.07;;;2.97;;
14369;SDS011;7268;50.792;0.252;2023-06-24T04:00:04;3.35;;;2.03;;
14369;SDS011;7268;50.792;0.252;2023-06-24T04:02:47;2.95;;;2.15;;
14369;SDS011;7268;50.792;0.252;2023-06-24T04:05:14;4.78;;;3.03;;
14369;SDS011;7268;50.792;0.252;2023-06-24T04:07:41;7.85;;;2.22;;
14369;SDS011;7268;50.792;0.252;2023-06-24T04:10:13;4.53;;;1.98;;
14369;SDS011;7268;50.792;0.252;2023-06-24T04:12:40;5.28;;;1.58;;
14369;SDS011;7268;50.792;0.252;2023-06-24T04:15:07;6.72;;;2.85;;
14369;SDS011;7268;50.792;0.252;2023-06-24T04:17:35;4.22;;;2.88;;
14369;SDS011;7268;50.792;0.252;2023-06-24T04:20:02;3.35;;;1.65;;
14369;SDS011;7268;50.792;0.252;2023-06-24T04:22:32;6.07;;;3.67;;
14369;SDS011;7268;50.792;0.252;2023-06-24T04:24:59;4.38;;;2.22;;
14369;SDS011;7268;50.792;0.252;2023-06-24T04:27:26;5.60;;;3.58;;
14369;SDS011;7268;50.792;0.252;2023-06-24T04:29:53;4.13;;;2.70;;
14369;SDS011;7268;50.792;0.252;2023-06-24T04:32:20;5.00;;;3.05;;
14369;SDS011;7268;50.792;0.252;2023-06-24T04:34:47;4.15;;;2.78;;
14369;SDS011;7268;50.792;0.252;2023-06-24T04:37:14;3.95;;;2.13;;
14369;SDS011;7268;50.792;0.252;2023-06-24T04:39:41;5.07;;;3.15;;
14369;SDS011;7268;50.792;0.252;2023-06-24T04:42:09;3.38;;;1.85;;
14369;SDS011;7268;50.792;0.252;2023-06-24T04:44:36;5.63;;;2.13;;
14369;SDS011;7268;50.792;0.252;2023-06-24T04:47:03;5.22;;;4.25;;
14369;SDS011;7268;50.792;0.252;2023-06-24T04:49:30;4.28;;;2.90;;
14369;SDS011;7268;50.792;0.252;2023-06-24T04:51:59;8.77;;;3.05;;
14369;SDS011;7268;50.792;0.252;2023-06-24T04:54:27;5.32;;;3.83;;
14369;SDS011;7268;50.792;0.252;2023-06-24T04:56:54;4.78;;;2.33;;
14369;SDS011;7268;50.792;0.252;2023-06-24T04:59:21;4.68;;;1.77;;
14369;SDS011;7268;50.792;0.252;2023-06-24T05:01:48;4.75;;;2.53;;
14369;SDS011;7268;50.792;0.252;2023-06-24T05:04:15;6.25;;;2.97;;
14369;SDS011;7268;50.792;0.252;2023-06-24T05:06:42;4.55;;;2.53;;
14369;SDS011;7268;50.792;0.252;2023-06-24T05:09:09;5.43;;;2.55;;
14369;SDS011;7268;50.792;0.252;2023-06-24T05:11:40;8.55;;;2.92;;
14369;SDS011;7268;50.792;0.252;2023-06-24T05:14:07;4.55;;;2.38;;
14369;SDS011;7268;50.792;0.252;2023-06-24T05:16:35;5.47;;;1.85;;
14369;SDS011;7268;50.792;0.252;2023-06-24T05:19:02;4.35;;;2.20;;
14369;SDS011;7268;50.792;0.252;2023-06-24T05:21:29;4.78;;;2.13;;
14369;SDS011;7268;50.792;0.252;2023-06-24T05:23:56;5.68;;;2.72;;
14369;SDS011;7268;50.792;0.252;2023-06-24T05:26:23;4.97;;;3.35;;
14369;SDS011;7268;50.792;0.252;2023-06-24T05:28:49;3.55;;;2.75;;
14369;SDS011;7268;50.792;0.252;2023-06-24T05:31:16;3.78;;;2.63;;
14369;SDS011;7268;50.792;0.252;2023-06-24T05:33:44;5.03;;;3.00;;
14369;SDS011;7268;50.792;0.252;2023-06-24T05:36:12;6.38;;;2.33;;
14369;SDS011;7268;50.792;0.252;2023-06-24T05:38:39;3.95;;;2.05;;
14369;SDS011;7268;50.792;0.252;2023-06-24T05:41:06;5.22;;;2.50;;
14369;SDS011;7268;50.792;0.252;2023-06-24T05:43:33;5.15;;;2.47;;
14369;SDS011;7268;50.792;0.252;2023-06-24T05:46:00;3.35;;;2.25;;
14369;SDS011;7268;50.792;0.252;2023-06-24T05:48:27;6.07;;;2.95;;
14369;SDS011;7268;50.792;0.252;2023-06-24T05:50:54;4.55;;;1.95;;
14369;SDS011;7268;50.792;0.252;2023-06-24T05:53:21;7.97;;;2.67;;
14369;SDS011;7268;50.792;0.252;2023-06-24T05:55:50;4.80;;;2.55;;
14369;SDS011;7268;50.792;0.252;2023-06-24T05:58:17;3.08;;;0.93;;
14369;SDS011;7268;50.792;0.252;2023-06-24T06:00:43;5.28;;;3.22;;
14369;SDS011;7268;50.792;0.252;2023-06-24T06:03:10;3.70;;;1.75;;
14369;SDS011;7268;50.792;0.252;2023-06-24T06:05:37;3.33;;;2.35;;
14369;SDS011;7268;50.792;0.252;2023-06-24T06:08:05;3.08;;;1.88;;
14369;SDS011;7268;50.792;0.252;2023-06-24T06:10:32;3.20;;;1.90;;
14369;SDS011;7268;50.792;0.252;2023-06-24T06:12:59;3.17;;;1.27;;
14369;SDS011;7268;50.792;0.252;2023-06-24T06:15:26;3.10;;;1.60;;
14369;SDS011;7268;50.792;0.252;2023-06-24T06:17:53;2.28;;;1.08;;
14369;SDS011;7268;50.792;0.252;2023-06-24T06:20:20;2.08;;;1.13;;
14369;SDS011;7268;50.792;0.252;2023-06-24T06:22:47;2.20;;;1.23;;
14369;SDS011;7268;50.792;0.252;2023-06-24T06:25:14;2.13;;;0.88;;
14369;SDS011;7268;50.792;0.252;2023-06-24T06:27:41;2.53;;;0.95;;
14369;SDS011;7268;50.792;0.252;2023-06-24T06:30:08;2.50;;;0.60;;
14369;SDS011;7268;50.792;0.252;2023-06-24T06:32:36;2.10;;;0.88;;
14369;SDS011;7268;50.792;0.252;2023-06-24T06:35:03;2.40;;;1.10;;
14369;SDS011;7268;50.792;0.252;2023-06-24T06:37:30;1.33;;;0.93;;
14369;SDS011;7268;50.792;0.252;2023-06-24T06:39:57;2.08;;;0.93;;
14369;SDS011;7268;50.792;0.252;2023-06-24T06:42:24;2.95;;;0.65;;
14369;SDS011;7268;50.792;0.252;2023-06-24T06:44:51;1.30;;;0.75;;
14369;SDS011;7268;50.792;0.252;2023-06-24T06:49:45;1.17;;;0.35;;
14369;SDS011;7268;50.792;0.252;2023-06-24T06:52:12;1.67;;;0.60;;
14369;SDS011;7268;50.792;0.252;2023-06-24T06:54:42;1.95;;;0.82;;
14369;SDS011;7268;50.792;0.252;2023-06-24T06:57:09;2.17;;;0.63;;
14369;SDS011;7268;50.792;0.252;2023-06-24T06:59:36;1.80;;;0.40;;
14369;SDS011;7268;50.792;0.252;2023-06-24T07:04:30;1.80;;;0.25;;
14369;SDS011;7268;50.792;0.252;2023-06-24T07:06:57;1.83;;;0.60;;
14369;SDS011;7268;50.792;0.252;2023-06-24T07:11:51;1.70;;;0.82;;
14369;SDS011;7268;50.792;0.252;2023-06-24T07:14:18;2.40;;;0.70;;
14369;SDS011;7268;50.792;0.252;2023-06-24T07:16:45;1.48;;;0.65;;
14369;SDS011;7268;50.792;0.252;2023-06-24T07:19:12;1.42;;;0.30;;
14369;SDS011;7268;50.792;0.252;2023-06-24T07:21:39;1.80;;;0.98;;
14369;SDS011;7268;50.792;0.252;2023-06-24T07:24:06;2.00;;;0.40;;
14369;SDS011;7268;50.792;0.252;2023-06-24T07:26:33;1.60;;;0.82;;
14369;SDS011;7268;50.792;0.252;2023-06-24T07:29:00;1.23;;;0.63;;
14369;SDS011;7268;50.792;0.252;2023-06-24T07:31:35;1.10;;;0.40;;
14369;SDS011;7268;50.792;0.252;2023-06-24T07:34:03;1.08;;;0.70;;
14369;SDS011;7268;50.792;0.252;2023-06-24T07:36:31;1.52;;;0.93;;
14369;SDS011;7268;50.792;0.252;2023-06-24T07:41:25;1.92;;;0.68;;
14369;SDS011;7268;50.792;0.252;2023-06-24T07:46:19;1.23;;;0.65;;
14369;SDS011;7268;50.792;0.252;2023-06-24T07:48:47;1.30;;;0.57;;
14369;SDS011;7268;50.792;0.252;2023-06-24T07:53:41;1.58;;;0.65;;
14369;SDS011;7268;50.792;0.252;2023-06-24T07:56:07;1.70;;;0.73;;
14369;SDS011;7268;50.792;0.252;2023-06-24T07:58:35;1.65;;;0.60;;
14369;SDS011;7268;50.792;0.252;2023-06-24T08:01:04;1.05;;;0.55;;
14369;SDS011;7268;50.792;0.252;2023-06-24T08:03:33;1.48;;;0.60;;
14369;SDS011;7268;50.792;0.252;2023-06-24T08:06:00;1.25;;;0.60;;
14369;SDS011;7268;50.792;0.252;2023-06-24T08:08:28;1.38;;;0.60;;
14369;SDS011;7268;50.792;0.252;2023-06-24T08:10:54;3.20;;;0.70;;
14369;SDS011;7268;50.792;0.252;2023-06-24T08:13:21;1.40;;;0.80;;
14369;SDS011;7268;50.792;0.252;2023-06-24T08:15:48;1.33;;;0.57;;
14369;SDS011;7268;50.792;0.252;2023-06-24T08:18:15;1.95;;;1.55;;
14369;SDS011;7268;50.792;0.252;2023-06-24T08:20:42;2.35;;;0.82;;
14369;SDS011;7268;50.792;0.252;2023-06-24T08:23:09;2.88;;;0.90;;
14369;SDS011;7268;50.792;0.252;2023-06-24T08:25:36;2.15;;;0.40;;
14369;SDS011;7268;50.792;0.252;2023-06-24T08:28:04;1.48;;;1.05;;
14369;SDS011;7268;50.792;0.252;2023-06-24T08:30:31;1.30;;;0.63;;
14369;SDS011;7268;50.792;0.252;2023-06-24T08:32:59;2.55;;;0.93;;
14369;SDS011;7268;50.792;0.252;2023-06-24T08:37:53;1.75;;;0.75;;
14369;SDS011;7268;50.792;0.252;2023-06-24T08:40:20;1.30;;;0.90;;
14369;SDS011;7268;50.792;0.252;2023-06-24T08:42:47;2.40;;;0.80;;
14369;SDS011;7268;50.792;0.252;2023-06-24T08:45:15;1.20;;;0.55;;
14369;SDS011;7268;50.792;0.252;2023-06-24T08:47:42;1.17;;;0.47;;
14369;SDS011;7268;50.792;0.252;2023-06-24T08:52:42;3.88;;;1.02;;
14369;SDS011;7268;50.792;0.252;2023-06-24T08:55:12;1.95;;;0.98;;
14369;SDS011;7268;50.792;0.252;2023-06-24T08:57:42;0.85;;;0.22;;
14369;SDS011;7268;50.792;0.252;2023-06-24T09:00:09;2.28;;;1.05;;
14369;SDS011;7268;50.792;0.252;2023-06-24T09:02:37;1.40;;;0.80;;
14369;SDS011;7268;50.792;0.252;2023-06-24T09:05:06;2.30;;;0.77;;
14369;SDS011;7268;50.792;0.252;2023-06-24T09:07:34;2.42;;;1.25;;
14369;SDS011;7268;50.792;0.252;2023-06-24T09:10:01;1.77;;;0.95;;
14369;SDS011;7268;50.792;0.252;2023-06-24T09:12:28;2.13;;;1.23;;
14369;SDS011;7268;50.792;0.252;2023-06-24T09:14:58;2.53;;;1.02;;
14369;SDS011;7268;50.792;0.252;2023-06-24T09:20:02;3.22;;;1.35;;
14369;SDS011;7268;50.792;0.252;2023-06-24T09:22:33;2.13;;;1.25;;
14369;SDS011;7268;50.792;0.252;2023-06-24T09:27:30;2.08;;;0.65;;
14369;SDS011;7268;50.792;0.252;2023-06-24T09:29:59;2.78;;;1.08;;
14369;SDS011;7268;50.792;0.252;2023-06-24T09:34:56;1.75;;;0.52;;
14369;SDS011;7268;50.792;0.252;2023-06-24T09:39:50;2.42;;;1.13;;
14369;SDS011;7268;50.792;0.252;2023-06-24T09:42:20;1.70;;;1.23;;
14369;SDS011;7268;50.792;0.252;2023-06-24T09:44:55;1.50;;;1.13;;
14369;SDS011;7268;50.792;0.252;2023-06-24T09:47:23;2.97;;;1.15;;
14369;SDS011;7268;50.792;0.252;2023-06-24T09:49:53;2.15;;;0.50;;
14369;SDS011;7268;50.792;0.252;2023-06-24T09:54:50;2.03;;;1.05;;
14369;SDS011;7268;50.792;0.252;2023-06-24T09:57:21;0.98;;;0.45;;
14369;SDS011;7268;50.792;0.252;2023-06-24T09:59:53;1.90;;;0.57;;
14369;SDS011;7268;50.792;0.252;2023-06-24T10:02:20;2.22;;;1.10;;
14369;SDS011;7268;50.792;0.252;2023-06-24T10:04:48;2.42;;;0.90;;
14369;SDS011;7268;50.792;0.252;2023-06-24T10:07:15;1.83;;;0.85;;
14369;SDS011;7268;50.792;0.252;2023-06-24T10:09:43;2.92;;;0.73;;
14369;SDS011;7268;50.792;0.252;2023-06-24T10:12:11;2.22;;;0.73;;
14369;SDS011;7268;50.792;0.252;2023-06-24T10:17:05;2.30;;;0.95;;
14369;SDS011;7268;50.792;0.252;2023-06-24T10:19:39;1.77;;;0.73;;
14369;SDS011;7268;50.792;0.252;2023-06-24T10:22:10;2.05;;;0.80;;
14369;SDS011;7268;50.792;0.252;2023-06-24T10:24:38;1.67;;;0.65;;
14369;SDS011;7268;50.792;0.252;2023-06-24T10:27:09;3.13;;;1.27;;
14369;SDS011;7268;50.792;0.252;2023-06-24T10:29:41;1.50;;;1.05;;
14369;SDS011;7268;50.792;0.252;2023-06-24T10:32:14;2.83;;;0.55;;
14369;SDS011;7268;50.792;0.252;2023-06-24T10:34:43;1.85;;;0.45;;
14369;SDS011;7268;50.792;0.252;2023-06-24T10:40:02;1.30;;;0.10;;
14369;SDS011;7268;50.792;0.252;2023-06-24T10:47:48;3.55;;;1.35;;
14369;SDS011;7268;50.792;0.252;2023-06-24T10:50:18;1.80;;;1.02;;
14369;SDS011;7268;50.792;0.252;2023-06-24T10:52:47;2.00;;;0.98;;
14369;SDS011;7268;50.792;0.252;2023-06-24T10:55:18;2.20;;;0.88;;
14369;SDS011;7268;50.792;0.252;2023-06-24T10:57:45;2.50;;;1.25;;
14369;SDS011;7268;50.792;0.252;2023-06-24T11:02:40;1.48;;;0.68;;
14369;SDS011;7268;50.792;0.252;2023-06-24T11:05:08;1.63;;;1.08;;
14369;SDS011;7268;50.792;0.252;2023-06-24T11:07:35;2.00;;;1.20;;
14369;SDS011;7268;50.792;0.252;2023-06-24T11:10:05;1.63;;;0.32;;
14369;SDS011;7268;50.792;0.252;2023-06-24T11:12:40;3.33;;;0.47;;
14369;SDS011;7268;50.792;0.252;2023-06-24T11:15:10;2.08;;;1.42;;
14369;SDS011;7268;50.792;0.252;2023-06-24T11:17:38;3.78;;;1.67;;
14369;SDS011;7268;50.792;0.252;2023-06-24T11:20:07;1.65;;;0.57;;
14369;SDS011;7268;50.792;0.252;2023-06-24T11:22:35;1.77;;;1.17;;
14369;SDS011;7268;50.792;0.252;2023-06-24T11:25:02;2.63;;;0.90;;
14369;SDS011;7268;50.792;0.252;2023-06-24T11:27:30;1.67;;;0.80;;
14369;SDS011;7268;50.792;0.252;2023-06-24T11:29:58;1.85;;;1.08;;
14369;SDS011;7268;50.792;0.252;2023-06-24T11:32:37;1.38;;;0.68;;
14369;SDS011;7268;50.792;0.252;2023-06-24T11:35:07;1.65;;;0.88;;
14369;SDS011;7268;50.792;0.252;2023-06-24T11:37:35;2.33;;;1.35;;
14369;SDS011;7268;50.792;0.252;2023-06-24T11:42:31;1.65;;;1.05;;
14369;SDS011;7268;50.792;0.252;2023-06-24T11:45:05;1.50;;;0.52;;
14369;SDS011;7268;50.792;0.252;2023-06-24T11:47:41;2.80;;;1.45;;
14369;SDS011;7268;50.792;0.252;2023-06-24T11:50:08;3.35;;;1.15;;
14369;SDS011;7268;50.792;0.252;2023-06-24T11:55:11;1.77;;;1.13;;
14369;SDS011;7268;50.792;0.252;2023-06-24T11:57:49;1.85;;;1.00;;
14369;SDS011;7268;50.792;0.252;2023-06-24T12:00:21;2.58;;;1.60;;
14369;SDS011;7268;50.792;0.252;2023-06-24T12:02:50;1.75;;;1.17;;
14369;SDS011;7268;50.792;0.252;2023-06-24T12:05:35;1.55;;;1.00;;
14369;SDS011;7268;50.792;0.252;2023-06-24T12:08:04;2.90;;;1.40;;
14369;SDS011;7268;50.792;0.252;2023-06-24T12:10:37;4.07;;;1.70;;
14369;SDS011;7268;50.792;0.252;2023-06-24T12:13:05;1.85;;;1.38;;
14369;SDS011;7268;50.792;0.252;2023-06-24T12:15:35;2.13;;;0.70;;
14369;SDS011;7268;50.792;0.252;2023-06-24T12:20:29;3.10;;;0.82;;
14369;SDS011;7268;50.792;0.252;2023-06-24T12:23:02;2.65;;;0.40;;
14369;SDS011;7268;50.792;0.252;2023-06-24T12:25:32;1.83;;;0.75;;
14369;SDS011;7268;50.792;0.252;2023-06-24T12:30:27;2.97;;;1.42;;
14369;SDS011;7268;50.792;0.252;2023-06-24T12:32:54;1.98;;;1.25;;
14369;SDS011;7268;50.792;0.252;2023-06-24T12:35:22;1.88;;;1.65;;
14369;SDS011;7268;50.792;0.252;2023-06-24T12:37:52;2.22;;;1.45;;
14369;SDS011;7268;50.792;0.252;2023-06-24T12:40:19;2.03;;;0.70;;
14369;SDS011;7268;50.792;0.252;2023-06-24T12:45:14;3.47;;;1.17;;
14369;SDS011;7268;50.792;0.252;2023-06-24T12:47:41;2.38;;;1.65;;
14369;SDS011;7268;50.792;0.252;2023-06-24T12:50:08;3.28;;;1.30;;
14369;SDS011;7268;50.792;0.252;2023-06-24T12:55:04;1.65;;;1.10;;
14369;SDS011;7268;50.792;0.252;2023-06-24T12:57:33;2.17;;;0.50;;
14369;SDS011;7268;50.792;0.252;2023-06-24T13:02:28;2.28;;;1.05;;
14369;SDS011;7268;50.792;0.252;2023-06-24T13:04:55;2.67;;;0.93;;
14369;SDS011;7268;50.792;0.252;2023-06-24T13:07:21;2.30;;;1.35;;
14369;SDS011;7268;50.792;0.252;2023-06-24T13:09:48;2.97;;;1.33;;
14369;SDS011;7268;50.792;0.252;2023-06-24T13:12:15;3.05;;;1.95;;
14369;SDS011;7268;50.792;0.252;2023-06-24T13:14:42;2.50;;;1.50;;
14369;SDS011;7268;50.792;0.252;2023-06-24T13:17:09;1.60;;;0.95;;
14369;SDS011;7268;50.792;0.252;2023-06-24T13:19:36;2.20;;;1.23;;
14369;SDS011;7268;50.792;0.252;2023-06-24T13:22:03;2.78;;;0.75;;
14369;SDS011;7268;50.792;0.252;2023-06-24T13:24:30;1.55;;;0.73;;
14369;SDS011;7268;50.792;0.252;2023-06-24T13:26:57;2.35;;;1.08;;
14369;SDS011;7268;50.792;0.252;2023-06-24T13:29:24;2.63;;;1.42;;
14369;SDS011;7268;50.792;0.252;2023-06-24T13:31:51;2.17;;;0.77;;
14369;SDS011;7268;50.792;0.252;2023-06-24T13:34:18;1.80;;;1.00;;
14369;SDS011;7268;50.792;0.252;2023-06-24T13:36:45;1.55;;;1.08;;
14369;SDS011;7268;50.792;0.252;2023-06-24T13:39:14;1.40;;;0.60;;
14369;SDS011;7268;50.792;0.252;2023-06-24T13:41:45;1.48;;;1.02;;
14369;SDS011;7268;50.792;0.252;2023-06-24T13:44:12;1.33;;;0.80;;
14369;SDS011;7268;50.792;0.252;2023-06-24T13:49:06;3.25;;;1.20;;
14369;SDS011;7268;50.792;0.252;2023-06-24T13:51:33;1.23;;;0.73;;
14369;SDS011;7268;50.792;0.252;2023-06-24T13:54:00;0.90;;;0.35;;
14369;SDS011;7268;50.792;0.252;2023-06-24T13:56:28;1.58;;;1.10;;
14369;SDS011;7268;50.792;0.252;2023-06-24T13:58:56;1.30;;;0.95;;
14369;SDS011;7268;50.792;0.252;2023-06-24T14:01:26;1.08;;;0.75;;
14369;SDS011;7268;50.792;0.252;2023-06-24T14:03:55;1.38;;;1.02;;
14369;SDS011;7268;50.792;0.252;2023-06-24T14:06:22;1.27;;;0.65;;
14369;SDS011;7268;50.792;0.252;2023-06-24T14:08:50;1.10;;;0.55;;
14369;SDS011;7268;50.792;0.252;2023-06-24T14:11:18;1.48;;;1.20;;
14369;SDS011;7268;50.792;0.252;2023-06-24T14:13:45;1.50;;;0.43;;
14369;SDS011;7268;50.792;0.252;2023-06-24T14:18:39;2.08;;;0.88;;
14369;SDS011;7268;50.792;0.252;2023-06-24T14:21:07;1.88;;;1.00;;
14369;SDS011;7268;50.792;0.252;2023-06-24T14:26:02;1.70;;;0.88;;
14369;SDS011;7268;50.792;0.252;2023-06-24T14:28:29;1.20;;;0.38;;
14369;SDS011;7268;50.792;0.252;2023-06-24T14:30:56;1.70;;;0.70;;
14369;SDS011;7268;50.792;0.252;2023-06-24T14:33:24;1.40;;;0.73;;
14369;SDS011;7268;50.792;0.252;2023-06-24T14:35:51;1.23;;;0.50;;
14369;SDS011;7268;50.792;0.252;2023-06-24T14:38:18;1.33;;;0.80;;
14369;SDS011;7268;50.792;0.252;2023-06-24T14:43:13;1.70;;;0.52;;
14369;SDS011;7268;50.792;0.252;2023-06-24T14:45:40;1.27;;;0.73;;
14369;SDS011;7268;50.792;0.252;2023-06-24T14:48:07;2.70;;;1.20;;
14369;SDS011;7268;50.792;0.252;2023-06-24T14:50:34;1.73;;;0.93;;
14369;SDS011;7268;50.792;0.252;2023-06-24T14:55:29;2.45;;;0.68;;
14369;SDS011;7268;50.792;0.252;2023-06-24T14:57:56;1.95;;;0.63;;
14369;SDS011;7268;50.792;0.252;2023-06-24T15:00:24;1.10;;;0.77;;
14369;SDS011;7268;50.792;0.252;2023-06-24T15:02:51;1.00;;;0.60;;
14369;SDS011;7268;50.792;0.252;2023-06-24T15:05:18;1.20;;;0.57;;
14369;SDS011;7268;50.792;0.252;2023-06-24T15:07:45;1.33;;;0.13;;
14369;SDS011;7268;50.792;0.252;2023-06-24T15:10:12;1.42;;;1.30;;
14369;SDS011;7268;50.792;0.252;2023-06-24T15:12:39;0.90;;;0.73;;
14369;SDS011;7268;50.792;0.252;2023-06-24T15:15:06;1.90;;;1.00;;
14369;SDS011;7268;50.792;0.252;2023-06-24T15:17:34;1.33;;;0.43;;
14369;SDS011;7268;50.792;0.252;2023-06-24T15:20:02;1.13;;;0.40;;
14369;SDS011;7268;50.792;0.252;2023-06-24T15:22:30;3.00;;;1.13;;
14369;SDS011;7268;50.792;0.252;2023-06-24T15:24:57;1.25;;;1.00;;
14369;SDS011;7268;50.792;0.252;2023-06-24T15:27:24;1.80;;;0.73;;
14369;SDS011;7268;50.792;0.252;2023-06-24T15:29:51;1.00;;;0.63;;
14369;SDS011;7268;50.792;0.252;2023-06-24T15:32:18;1.63;;;0.60;;
14369;SDS011;7268;50.792;0.252;2023-06-24T15:34:45;2.80;;;0.82;;
14369;SDS011;7268;50.792;0.252;2023-06-24T15:37:12;2.92;;;0.43;;
14369;SDS011;7268;50.792;0.252;2023-06-24T15:39:41;1.48;;;0.52;;
14369;SDS011;7268;50.792;0.252;2023-06-24T15:44:34;1.23;;;0.50;;
14369;SDS011;7268;50.792;0.252;2023-06-24T15:47:01;0.90;;;0.22;;
14369;SDS011;7268;50.792;0.252;2023-06-24T15:49:30;1.20;;;0.90;;
14369;SDS011;7268;50.792;0.252;2023-06-24T15:51:57;2.42;;;0.52;;
14369;SDS011;7268;50.792;0.252;2023-06-24T15:54:24;1.50;;;0.57;;
14369;SDS011;7268;50.792;0.252;2023-06-24T15:56:51;1.13;;;0.88;;
14369;SDS011;7268;50.792;0.252;2023-06-24T15:59:18;1.20;;;0.50;;
14369;SDS011;7268;50.792;0.252;2023-06-24T16:01:45;0.80;;;0.55;;
14369;SDS011;7268;50.792;0.252;2023-06-24T16:04:12;1.58;;;0.60;;
14369;SDS011;7268;50.792;0.252;2023-06-24T16:06:39;3.10;;;0.80;;
14369;SDS011;7268;50.792;0.252;2023-06-24T16:09:06;1.67;;;0.40;;
14369;SDS011;7268;50.792;0.252;2023-06-24T16:11:33;1.08;;;0.98;;
14369;SDS011;7268;50.792;0.252;2023-06-24T16:14:00;1.77;;;0.30;;
14369;SDS011;7268;50.792;0.252;2023-06-24T16:16:27;1.02;;;0.20;;
14369;SDS011;7268;50.792;0.252;2023-06-24T16:18:54;1.75;;;0.60;;
14369;SDS011;7268;50.792;0.252;2023-06-24T16:21:21;0.98;;;0.85;;
14369;SDS011;7268;50.792;0.252;2023-06-24T16:23:48;1.10;;;0.57;;
14369;SDS011;7268;50.792;0.252;2023-06-24T16:26:15;1.55;;;0.70;;
14369;SDS011;7268;50.792;0.252;2023-06-24T16:28:42;1.27;;;0.73;;
14369;SDS011;7268;50.792;0.252;2023-06-24T16:31:09;1.20;;;0.60;;
14369;SDS011;7268;50.792;0.252;2023-06-24T16:33:36;1.10;;;0.47;;
14369;SDS011;7268;50.792;0.252;2023-06-24T16:36:03;0.98;;;0.73;;
14369;SDS011;7268;50.792;0.252;2023-06-24T16:38:30;0.90;;;0.30;;
14369;SDS011;7268;50.792;0.252;2023-06-24T16:40:56;1.08;;;0.52;;
14369;SDS011;7268;50.792;0.252;2023-06-24T16:43:23;0.90;;;0.60;;
14369;SDS011;7268;50.792;0.252;2023-06-24T16:45:50;1.02;;;0.52;;
14369;SDS011;7268;50.792;0.252;2023-06-24T16:48:17;0.85;;;0.68;;